createdAt,value
2022-10-23T00:02:59.545Z,3.83
2022-10-23T00:08:01.019Z,4.18
2022-10-23T00:13:02.721Z,3.45
2022-10-23T00:18:04.279Z,4.85
2022-10-23T00:23:05.650Z,3.55
2022-10-23T00:28:07.020Z,4.25
2022-10-23T00:33:09.111Z,4.38
2022-10-23T00:38:10.602Z,4.57
2022-10-23T00:43:23.166Z,6.15
2022-10-23T00:48:25.479Z,4.18
2022-10-23T00:53:26.859Z,3.88
2022-10-23T00:58:28.277Z,4.18
2022-10-23T01:03:29.637Z,5.05
2022-10-23T01:08:39.913Z,4.20
2022-10-23T01:14:00.173Z,4.28
2022-10-23T01:19:08.030Z,5.03
2022-10-23T01:24:29.416Z,4.15
2022-10-23T01:29:39.588Z,3.95
2022-10-23T01:34:46.256Z,3.63
2022-10-23T01:39:49.744Z,3.58
2022-10-23T01:44:57.029Z,4.47
2022-10-23T01:49:58.477Z,4.65
2022-10-23T01:55:00.356Z,3.60
2022-10-23T02:00:06.550Z,4.05
2022-10-23T02:05:14.834Z,3.25
2022-10-23T02:10:16.198Z,4.00
2022-10-23T02:15:40.433Z,4.35
2022-10-23T02:21:05.628Z,4.00
2022-10-23T02:26:26.804Z,3.70
2022-10-23T02:31:28.160Z,4.22
2022-10-23T02:36:29.546Z,3.55
2022-10-23T02:41:54.279Z,3.42
2022-10-23T02:47:20.896Z,3.57
2022-10-23T02:52:50.202Z,3.13
2022-10-23T02:58:29.060Z,3.80
2022-10-23T03:03:33.261Z,4.40
2022-10-23T03:08:42.581Z,3.45
2022-10-23T03:13:43.936Z,3.38
2022-10-23T03:18:45.330Z,3.03
2022-10-23T03:23:46.696Z,3.47
2022-10-23T03:28:48.061Z,3.13
2022-10-23T03:33:49.425Z,3.45
2022-10-23T03:38:50.804Z,3.47
2022-10-23T03:43:52.203Z,5.57
2022-10-23T03:48:53.580Z,4.55
2022-10-23T03:53:54.980Z,3.03
2022-10-23T03:58:56.373Z,4.00
2022-10-23T04:03:57.748Z,3.70
2022-10-23T04:08:59.144Z,2.90
2022-10-23T04:14:00.546Z,3.40
2022-10-23T04:19:01.912Z,3.28
2022-10-23T04:24:03.556Z,2.75
2022-10-23T04:29:04.952Z,4.18
2022-10-23T04:39:07.612Z,3.33
2022-10-23T04:44:08.989Z,3.13
2022-10-23T04:49:10.353Z,3.78
2022-10-23T04:54:11.793Z,3.33
2022-10-23T04:59:13.151Z,3.33
2022-10-23T05:04:14.522Z,3.35
2022-10-23T05:09:15.882Z,4.10
2022-10-23T05:14:20.611Z,3.88
2022-10-23T05:19:27.640Z,3.58
2022-10-23T05:24:29.615Z,3.88
2022-10-23T05:29:30.986Z,3.00
2022-10-23T05:34:33.088Z,3.05
2022-10-23T05:39:34.445Z,3.05
2022-10-23T05:44:36.646Z,3.53
2022-10-23T05:49:38.005Z,2.75
2022-10-23T05:54:39.373Z,3.67
2022-10-23T05:59:40.740Z,3.17
2022-10-23T06:04:42.108Z,3.65
2022-10-23T06:09:43.487Z,3.00
2022-10-23T06:14:44.846Z,3.25
2022-10-23T06:19:46.233Z,3.60
2022-10-23T06:24:47.594Z,3.28
2022-10-23T06:29:48.948Z,3.42
2022-10-23T06:34:50.312Z,3.67
2022-10-23T06:39:51.670Z,4.60
2022-10-23T06:44:53.024Z,4.82
2022-10-23T06:49:54.472Z,4.43
2022-10-23T06:54:55.832Z,4.78
2022-10-23T06:59:57.197Z,4.47
2022-10-23T07:04:58.566Z,4.85
2022-10-23T07:09:59.954Z,4.85
2022-10-23T07:15:01.345Z,4.95
2022-10-23T07:20:02.718Z,4.57
2022-10-23T07:25:04.340Z,5.70
2022-10-23T07:30:06.109Z,5.63
2022-10-23T07:35:07.911Z,5.30
2022-10-23T07:40:09.673Z,3.83
2022-10-23T07:45:11.280Z,4.75
2022-10-23T07:50:12.637Z,5.35
2022-10-23T07:55:14.112Z,5.18
2022-10-23T08:00:15.506Z,4.68
2022-10-23T08:05:19.302Z,5.35
2022-10-23T08:10:20.771Z,5.90
2022-10-23T08:15:22.137Z,5.78
2022-10-23T08:20:23.639Z,4.10
2022-10-23T08:25:26.070Z,3.70
2022-10-23T08:30:27.848Z,7.05
2022-10-23T08:35:29.237Z,5.35
2022-10-23T08:40:30.589Z,4.05
2022-10-23T08:45:47.142Z,5.20
2022-10-23T08:50:55.324Z,4.18
2022-10-23T08:56:02.509Z,3.95
2022-10-23T09:01:21.574Z,3.75
2022-10-23T09:06:37.749Z,4.65
2022-10-23T09:11:47.216Z,3.97
2022-10-23T09:17:33.997Z,3.80
2022-10-23T09:22:35.354Z,4.72
2022-10-23T09:27:36.716Z,3.58
2022-10-23T09:32:38.119Z,3.28
2022-10-23T09:37:45.958Z,3.17
2022-10-23T09:43:14.261Z,3.53
2022-10-23T09:48:17.857Z,3.13
2022-10-23T09:53:25.316Z,3.15
2022-10-23T09:58:35.508Z,4.82
2022-10-23T10:03:37.240Z,3.17
2022-10-23T10:08:48.837Z,3.08
2022-10-23T10:13:59.037Z,3.95
2022-10-23T10:19:30.360Z,4.10
2022-10-23T10:25:02.340Z,3.25
2022-10-23T10:30:14.025Z,2.88
2022-10-23T10:35:48.090Z,3.35
2022-10-23T10:41:20.645Z,3.55
2022-10-23T10:46:30.214Z,3.08
2022-10-23T10:51:44.366Z,5.18
2022-10-23T10:56:45.868Z,4.50
2022-10-23T11:02:12.744Z,2.78
2022-10-23T11:07:15.368Z,3.33
2022-10-23T11:12:24.851Z,3.17
2022-10-23T11:17:40.030Z,3.45
2022-10-23T11:22:52.959Z,5.13
2022-10-23T11:28:18.991Z,3.10
2022-10-23T11:33:41.406Z,3.10
2022-10-23T11:38:49.556Z,2.83
2022-10-23T11:44:01.288Z,3.28
2022-10-23T11:49:05.692Z,2.72
2022-10-23T11:54:09.880Z,3.92
2022-10-23T11:59:27.827Z,3.45
2022-10-23T12:04:39.653Z,2.97
2022-10-23T12:09:44.773Z,3.75
2022-10-23T12:14:49.929Z,3.70
2022-10-23T12:20:02.705Z,3.60
2022-10-23T12:25:08.972Z,2.47
2022-10-23T12:30:24.685Z,4.35
2022-10-23T12:35:49.928Z,2.75
2022-10-23T12:40:52.532Z,2.88
2022-10-23T12:45:54.492Z,3.58
2022-10-23T12:50:56.000Z,6.03
2022-10-23T13:01:07.112Z,2.88
2022-10-23T13:06:09.777Z,3.60
2022-10-23T13:11:15.324Z,3.05
2022-10-23T13:16:18.076Z,3.25
2022-10-23T13:21:23.757Z,3.33
2022-10-23T13:26:35.730Z,3.70
2022-10-23T13:31:37.084Z,3.05
2022-10-23T13:36:39.428Z,2.70
2022-10-23T13:41:45.024Z,3.90
2022-10-23T13:46:46.500Z,2.70
2022-10-23T13:51:52.547Z,3.58
2022-10-23T13:56:54.068Z,4.15
2022-10-23T14:01:55.620Z,3.15
2022-10-23T14:06:58.378Z,3.70
2022-10-23T14:11:59.766Z,3.55
2022-10-23T14:17:01.141Z,4.95
2022-10-23T14:22:02.644Z,3.10
2022-10-23T14:27:04.047Z,3.83
2022-10-23T14:32:05.428Z,3.58
2022-10-23T14:37:09.112Z,3.40
2022-10-23T14:42:10.780Z,4.05
2022-10-23T14:47:12.141Z,4.10
2022-10-23T14:52:13.504Z,3.38
2022-10-23T14:57:16.610Z,3.58
2022-10-23T15:02:18.032Z,3.67
2022-10-23T15:07:19.432Z,3.28
2022-10-23T15:12:21.053Z,3.10
2022-10-23T15:17:22.456Z,4.18
2022-10-23T15:22:23.908Z,2.90
2022-10-23T15:27:25.284Z,4.28
2022-10-23T15:32:26.655Z,3.45
2022-10-23T15:37:28.025Z,3.20
2022-10-23T15:42:29.400Z,4.32
2022-10-23T15:47:30.768Z,3.47
2022-10-23T15:52:32.129Z,3.10
2022-10-23T15:57:33.484Z,2.90
2022-10-23T16:02:35.051Z,4.68
2022-10-23T16:07:36.529Z,4.20
2022-10-23T16:12:37.893Z,3.35
2022-10-23T16:17:39.276Z,5.38
2022-10-23T16:22:44.097Z,3.47
2022-10-23T16:27:46.798Z,3.63
2022-10-23T16:32:48.302Z,3.92
2022-10-23T16:37:49.661Z,3.20
2022-10-23T16:42:51.029Z,4.20
2022-10-23T16:47:52.395Z,3.67
2022-10-23T16:52:55.783Z,3.95
2022-10-23T16:58:00.365Z,3.70
2022-10-23T17:03:03.016Z,5.10
2022-10-23T17:08:04.395Z,4.50
2022-10-23T17:13:05.757Z,4.40
2022-10-23T17:18:07.112Z,4.53
2022-10-23T17:23:08.480Z,3.78
2022-10-23T17:28:09.842Z,4.57
2022-10-23T17:33:11.262Z,4.13
2022-10-23T17:38:17.821Z,3.55
2022-10-23T17:43:19.189Z,4.03
2022-10-23T17:48:20.546Z,5.32
2022-10-23T17:53:21.901Z,5.13
2022-10-23T17:58:23.470Z,4.25
2022-10-23T18:03:24.824Z,3.90
2022-10-23T18:08:26.204Z,4.78
2022-10-23T18:13:27.591Z,6.20
2022-10-23T18:18:29.116Z,6.70
2022-10-23T18:23:30.581Z,5.15
2022-10-23T18:28:31.992Z,5.45
2022-10-23T18:33:33.348Z,4.25
2022-10-23T18:38:35.593Z,6.18
2022-10-23T18:43:43.610Z,7.10
2022-10-23T18:48:45.566Z,5.10
2022-10-23T18:53:47.076Z,6.45
2022-10-23T18:58:51.894Z,6.22
2022-10-23T19:03:53.691Z,6.47
2022-10-23T19:08:55.114Z,6.07
2022-10-23T19:13:56.496Z,6.80
2022-10-23T19:19:00.427Z,5.80
2022-10-23T19:24:03.925Z,5.70
2022-10-23T19:29:06.461Z,6.97
2022-10-23T19:34:07.821Z,6.07
2022-10-23T19:39:09.176Z,4.90
2022-10-23T19:44:10.632Z,5.53
2022-10-23T19:49:12.040Z,5.35
2022-10-23T19:54:13.564Z,5.28
2022-10-23T19:59:15.571Z,5.15
2022-10-23T20:04:18.123Z,5.78
2022-10-23T20:09:19.486Z,7.13
2022-10-23T20:14:20.885Z,7.50
2022-10-23T20:19:22.270Z,5.50
2022-10-23T20:24:23.651Z,6.38
2022-10-23T20:29:25.038Z,5.85
2022-10-23T20:34:26.482Z,6.80
2022-10-23T20:39:29.562Z,5.60
2022-10-23T20:44:31.020Z,5.43
2022-10-23T20:49:32.389Z,6.05
2022-10-23T20:54:35.764Z,7.13
2022-10-23T20:59:37.133Z,6.30
2022-10-23T21:04:38.484Z,5.75
2022-10-23T21:09:39.894Z,6.63
2022-10-23T21:14:41.269Z,6.88
2022-10-23T21:19:42.632Z,5.25
2022-10-23T21:24:43.990Z,6.72
2022-10-23T21:29:45.349Z,5.28
2022-10-23T21:34:46.701Z,5.43
2022-10-23T21:39:48.057Z,5.22
2022-10-23T21:44:49.416Z,7.00
2022-10-23T21:49:50.773Z,6.40
2022-10-23T21:54:52.796Z,5.82
2022-10-23T21:59:54.219Z,5.38
2022-10-23T22:04:55.574Z,5.90
2022-10-23T22:09:56.933Z,5.93
2022-10-23T22:14:58.413Z,7.00
2022-10-23T22:19:59.776Z,4.82
2022-10-23T22:25:01.339Z,6.45
2022-10-23T22:30:03.664Z,5.80
2022-10-23T22:35:05.480Z,5.55
2022-10-23T22:40:08.374Z,5.50
2022-10-23T22:45:09.925Z,6.22
2022-10-23T22:50:11.277Z,6.15
2022-10-23T22:55:12.657Z,6.13
2022-10-23T23:00:14.389Z,7.60
2022-10-23T23:05:15.757Z,5.68
2022-10-23T23:10:17.157Z,4.95
2022-10-23T23:15:18.578Z,6.72
2022-10-23T23:20:19.947Z,8.13
2022-10-23T23:25:21.360Z,5.93
2022-10-23T23:30:22.720Z,5.20
2022-10-23T23:35:24.832Z,4.80
2022-10-23T23:40:26.188Z,5.75
2022-10-23T23:45:27.597Z,5.63
2022-10-23T23:50:28.965Z,6.10
2022-10-23T23:55:30.362Z,5.85
